Kezdőlap
METAR-TAF:

METAR-TAF

Repülőterek :

Waterford, Írország

földrajzi szélesség: 52-11-14N, földrajzi hosszúság: 7-05-13W, magasság: 36 m

Jelenlegi meteorológiai megfigyelések

A jelentés 56 perccel ezelõtt készült, 17:30 UTC
Észak-északnyugati szél 6 kt, nyugat-északnyugati és észak-északkeleti között változik
Hőmérséklet 14°C
Páratartalom 72%
Légköri nyomás 1024 hPa
Látótávolság 10 km, vagy több
Kevés felhő 3500 lábon
Szórványos felhőzet 5300 lábon

METAR: EIWF 191730Z 34006KT 300V030 9999 FEW035 SCT053 14/09 Q1024

Idő: 19:26 (18:26 UTC)

Előrejelzés

A jelentés 1 órával és 26 perccel ezelõtt készült, 17:00 UTC
Az előrejelzés 19-én 18 óra UTC és 20-én 03 óra UTC között érvényes
Északi szél 10 kt
Látótávolság 10 km, vagy több
Szórványos felhőzet 3000 lábon
19-én 20 óra UTC és 19-én 22 óra UTC között fokozatosan kialakuló
Különbözõ irányokból fújó szél 3 kt

TAF: EIWF 191700Z 1918/2003 35010KT 9999 SCT030 BECMG 1920/1922 VRB03KT

Meteorológiai megfigyelések és előrejelzések több, mint 4000 repülőtéren (METAR és TAF jelentéseket).

A térképen piros és sárga pontok jelzik az elérhető meteorológiai állomásokat.

Mozgassa az egeret a pont fölött, hogy megjelenjen az állomás neve.

Azután kattintson az időjárási megfigyelések és előrejelzések megtekintéséhez.

A térkép megváltoztatása: kattintson a fekete keresztel jelölt zöld gombra ráközelítéshez, a vonallal jelölt zöld gombra távolításhoz, vagy a zöld nyilakra a szomszédos térképek eléréséhez.


METAR-TAF: